ELNO2: N. Canadian River, El Reno, OK

Data processed at Mon Aug 21 2017 23:36


All information presented herein is the property of the government of the United States of America and may be revised or deleted at any time without prior notice.
Dissemination of this information without the expressed written consent of the Public Affairs Office, Tulsa District U.S. Army Corps of Engineers is strictly prohibited.
These data are gathered electronically and, as presented, have not undergone any form of quality control. These data are not guaranteed to be valid or correct.
Go to home page.
Go to station list.

Upstream stations:

Downstream station:
Previous Day
Next Day
Current Day
    
SHEF ID:       ELNO2     North Canadian River near El Ren
STATION TYPE:  

               PRECIP     STAGE  STAGE(2)  RIV-FLOW  WTR-TEMP   CONDUCT  BAT-LOAD
                   in        ft        ft       cfs         F   umho/cm      volt
              Ccp-Rev   Ccp-Rev   Ccp-Rev   Ccp-Rev   Ccp-Rev   Ccp-Rev   Ccp-Rev
(US/Central)
08/19 00:00      0.00      3.89      ----        62     85.06       838     12.81
08/19 01:00      0.00      3.90      ----        63     84.31       857     12.73
08/19 02:00      0.00      3.89      ----        62     83.55       865     12.73
08/19 03:00      0.00      3.89      ----        62     82.89       877     12.73
08/19 04:00      0.00      3.89      ----        62     82.18       898     12.73
08/19 05:00      0.00      3.89      ----        62     81.64       910     12.73
08/19 06:00      0.00      3.89      ----        62     81.16       923     12.65
08/19 07:00      0.00      3.88      ----        61     80.71       938     12.65
08/19 08:00      0.00      3.88      ----        61     80.38       953     12.65
08/19 09:00      0.00      3.88      ----        61     80.40       990     13.37
08/19 10:00      0.00      3.88      ----        61     81.16       995     13.68
08/19 11:00      0.00      3.87      ----        60     82.58       998     13.76
08/19 12:00      0.00      3.87      ----        60     84.36       991     13.76
08/19 13:00      0.00      3.87      ----        60     86.18       971     13.68
08/19 14:00      0.00      3.86      ----        59     87.94       944     13.68
08/19 15:00      0.00      3.84      ----        57     89.58       914     13.68
08/19 16:00      0.00      3.82      ----        56     90.72       860     13.53
08/19 17:00      0.00      3.81      ----        55     91.56       833     13.60
08/19 18:00      0.00      3.80      ----        54     91.74       808     13.37
08/19 19:00      0.00      3.80      ----        54     91.17       791     13.29
08/19 20:00      0.00      3.80      ----        54     90.36       788     12.97
08/19 21:00      0.00      3.81      ----        55     89.58       808     12.81
08/19 22:00      0.00      3.81      ----        55     88.66       817     12.81
08/19 23:00      0.00      3.81      ----        55     87.89       826     12.81